Terminal Aerodrome Forecast
Issued by NWS Los Angeles, CA

Home | Current Version | Previous Version | Text Only | Print | Product List | Glossary On
Versions: 1 2 3 4 5 6 7 8 9 10 11 12
185
FTUS46 KLOX 161720
TAFSMX
TAF
KSMX 161720Z 1618/1718 VRB03KT P6SM SCT250
     FM162000 30010KT P6SM SCT250
     FM170300 VRB03KT P6SM BKN150=

USA.gov is the U.S. government's official web portal to all federal, state and local government web resources and services.